Time;durP1;ratioP1;P1;durP2;ratioP2;P2;SDS_P1;SDS_P2;PMS_P1;PMS_P2;Temp;Humidity;BMP_temperature;BMP_pressure;BME280_temperature;BME280_humidity;BME280_pressure;Samples;Min_cycle;Max_cycle;Signal;HPM_P1;HPM_P2
2024/04/11 00:00:08;;;;;;;14.77;4.90;;;8.70;48.50;;;;;;5449832;26;20418;-71
2024/04/11 00:02:33;;;;;;;11.83;4.87;;;8.70;48.90;;;;;;5448327;26;21142;-70
2024/04/11 00:04:59;;;;;;;14.23;5.30;;;8.70;48.90;;;;;;5449452;26;20389;-71
2024/04/11 00:07:25;;;;;;;14.67;5.20;;;8.70;49.40;;;;;;5450219;26;20324;-72
2024/04/11 00:09:50;;;;;;;11.00;5.20;;;8.70;49.30;;;;;;5454040;26;20349;-70
2024/04/11 00:12:16;;;;;;;13.53;5.03;;;8.70;49.30;;;;;;5450074;26;20380;-70
2024/04/11 00:14:45;;;;;;;13.63;4.77;;;8.60;49.20;;;;;;5449054;26;20377;-72
2024/04/11 00:17:11;;;;;;;10.77;5.83;;;8.70;50.00;;;;;;5449039;26;20340;-71
2024/04/11 00:19:37;;;;;;;13.82;5.45;;;8.70;50.30;;;;;;5449114;26;20317;-71
2024/04/11 00:22:03;;;;;;;13.13;4.80;;;8.70;50.10;;;;;;5449031;26;20799;-72
2024/04/11 00:24:28;;;;;;;17.58;5.50;;;8.70;49.90;;;;;;5448275;26;20325;-71
2024/04/11 00:26:54;;;;;;;12.07;4.88;;;8.60;50.20;;;;;;5448548;26;20420;-71
2024/04/11 00:29:19;;;;;;;12.40;5.10;;;8.60;50.10;;;;;;5448880;26;20329;-71
2024/04/11 00:31:45;;;;;;;11.57;4.50;;;8.60;50.00;;;;;;5448594;26;20313;-71
2024/04/11 00:34:15;;;;;;;14.27;5.00;;;8.50;50.50;;;;;;5448462;26;20329;-71
2024/04/11 00:36:41;;;;;;;11.63;4.78;;;;;;;;;;5448573;26;20333;-71
2024/04/11 00:39:17;;;;;;;11.07;4.63;;;8.50;49.90;;;;;;5477325;26;20377;-71
2024/04/11 00:41:45;;;;;;;15.87;5.50;;;8.50;50.30;;;;;;5448700;26;20898;-70
2024/04/11 00:44:10;;;;;;;15.90;6.07;;;8.50;50.40;;;;;;5448454;26;20893;-70
2024/04/11 00:46:37;;;;;;;12.03;4.80;;;8.50;50.00;;;;;;5448994;26;20369;-71
2024/04/11 00:49:03;;;;;;;16.75;4.93;;;8.50;50.20;;;;;;5451918;26;20329;-70
2024/04/11 00:51:29;;;;;;;10.80;4.78;;;8.50;50.50;;;;;;5452516;26;20353;-72
2024/04/11 00:53:56;;;;;;;13.00;4.88;;;8.50;50.80;;;;;;5452088;26;20337;-71
2024/04/11 00:56:23;;;;;;;11.10;4.63;;;8.50;50.60;;;;;;5452259;26;20324;-72
2024/04/11 00:58:48;;;;;;;12.82;5.35;;;8.50;50.40;;;;;;5451877;26;20321;-71
2024/04/11 01:01:14;;;;;;;11.03;4.93;;;8.60;50.10;;;;;;5452107;26;20880;-70
2024/04/11 01:03:40;;;;;;;11.60;4.60;;;8.60;49.80;;;;;;5451649;26;20392;-71
2024/04/11 01:06:06;;;;;;;11.35;4.50;;;8.60;49.50;;;;;;5451670;26;20329;-71
2024/04/11 01:08:31;;;;;;;13.38;4.82;;;8.60;49.10;;;;;;5451979;26;20390;-73
2024/04/11 01:10:57;;;;;;;11.80;4.90;;;8.60;49.10;;;;;;5451653;26;20328;-71
2024/04/11 01:13:23;;;;;;;18.30;4.85;;;8.60;49.10;;;;;;5451449;26;20317;-71
2024/04/11 01:15:49;;;;;;;13.65;5.30;;;8.50;49.60;;;;;;5451539;26;20352;-72
2024/04/11 01:18:15;;;;;;;9.98;4.32;;;8.70;50.00;;;;;;5451649;26;20320;-72
2024/04/11 01:20:43;;;;;;;10.67;4.20;;;8.50;49.80;;;;;;5451799;26;20324;-70
2024/04/11 01:23:08;;;;;;;15.30;4.40;;;8.50;50.00;;;;;;5451264;26;20911;-71
2024/04/11 01:25:34;;;;;;;11.93;4.10;;;8.50;49.60;;;;;;5451332;26;20328;-71
2024/04/11 01:28:00;;;;;;;12.05;4.65;;;8.40;49.60;;;;;;5451348;26;20362;-71
2024/04/11 01:30:26;;;;;;;13.38;3.85;;;8.40;49.30;;;;;;5451592;26;20309;-72
2024/04/11 01:33:00;;;;;;;11.43;4.00;;;8.40;50.00;;;;;;5450975;26;20446;-72
2024/04/11 01:35:26;;;;;;;10.18;4.07;;;8.40;49.30;;;;;;5451796;26;20479;-70
2024/04/11 01:37:52;;;;;;;12.15;4.18;;;8.40;49.00;;;;;;5450341;26;20917;-71
2024/04/11 01:40:18;;;;;;;9.47;3.60;;;8.40;49.00;;;;;;5452159;26;20324;-71
2024/04/11 01:42:44;;;;;;;8.50;3.53;;;8.40;49.30;;;;;;5451576;26;20360;-71
2024/04/11 01:45:10;;;;;;;12.32;4.40;;;8.40;48.60;;;;;;5452862;26;20325;-72
2024/04/11 01:47:38;;;;;;;8.65;4.20;;;8.40;49.30;;;;;;5453409;26;20320;-71
2024/04/11 01:50:04;;;;;;;11.20;3.90;;;8.40;49.60;;;;;;5452676;26;20840;-72
2024/04/11 01:52:30;;;;;;;11.40;3.70;;;8.40;49.30;;;;;;5451565;26;20730;-72
2024/04/11 01:55:00;;;;;;;11.20;4.10;;;8.50;48.70;;;;;;5450945;26;20329;-70
2024/04/11 01:57:27;;;;;;;9.80;4.30;;;8.60;48.90;;;;;;5451573;26;20345;-71
2024/04/11 01:59:53;;;;;;;10.68;4.20;;;8.60;48.20;;;;;;5450679;26;20333;-71
2024/04/11 02:02:19;;;;;;;9.10;4.10;;;8.60;47.80;;;;;;5451829;26;20361;-71
2024/04/11 02:04:45;;;;;;;7.50;3.60;;;8.60;47.80;;;;;;5451449;26;20363;-71
2024/04/11 02:07:10;;;;;;;10.32;3.50;;;8.60;47.40;;;;;;5451657;26;20321;-70
2024/04/11 02:09:36;;;;;;;13.70;3.90;;;8.60;47.00;;;;;;5451345;26;20313;-71
2024/04/11 02:12:02;;;;;;;8.55;3.47;;;8.60;46.70;;;;;;5451405;26;20329;-71
2024/04/11 02:14:28;;;;;;;11.32;3.50;;;8.60;45.80;;;;;;5451297;26;20329;-71
2024/04/11 02:16:55;;;;;;;9.75;3.85;;;8.70;46.40;;;;;;5451634;26;20747;-71
2024/04/11 02:19:20;;;;;;;8.73;3.37;;;8.80;45.70;;;;;;5451676;26;20336;-71
2024/04/11 02:21:48;;;;;;;9.80;3.45;;;8.90;45.50;;;;;;5452801;26;20419;-71
2024/04/11 02:24:17;;;;;;;9.57;3.97;;;9.00;44.90;;;;;;5452550;26;20320;-71
2024/04/11 02:26:47;;;;;;;13.77;3.50;;;9.00;44.20;;;;;;5451742;26;20333;-71
2024/04/11 02:29:17;;;;;;;12.02;3.30;;;9.10;43.90;;;;;;5451545;26;20715;-71
2024/04/11 02:31:42;;;;;;;7.70;3.20;;;9.20;43.70;;;;;;5451114;26;20403;-71
2024/04/11 02:34:08;;;;;;;6.40;3.03;;;9.20;42.70;;;;;;5451081;26;20341;-69
2024/04/11 02:36:34;;;;;;;8.30;3.30;;;9.20;42.00;;;;;;5451890;26;20376;-72
2024/04/11 02:39:01;;;;;;;5.97;3.10;;;9.20;42.10;;;;;;5453336;26;20353;-71
2024/04/11 02:41:30;;;;;;;6.17;3.17;;;9.20;42.40;;;;;;5454267;26;20426;-70
2024/04/11 02:43:56;;;;;;;7.85;3.00;;;9.30;41.30;;;;;;5454847;26;20941;-71
2024/04/11 02:46:22;;;;;;;10.88;3.40;;;9.30;41.30;;;;;;5453126;26;20332;-70
2024/04/11 02:48:48;;;;;;;8.30;3.15;;;9.30;41.20;;;;;;5451502;26;20443;-72
2024/04/11 02:51:14;;;;;;;7.22;3.50;;;9.30;40.80;;;;;;5451869;26;20321;-70
2024/04/11 02:53:40;;;;;;;12.27;3.47;;;9.30;40.50;;;;;;5451873;26;20329;-72
2024/04/11 02:56:09;;;;;;;8.55;2.83;;;9.40;40.70;;;;;;5454444;26;20406;-72
2024/04/11 02:58:38;;;;;;;8.30;3.30;;;9.40;40.80;;;;;;5454612;26;20317;-72
2024/04/11 03:01:06;;;;;;;9.38;3.10;;;9.40;40.30;;;;;;5451088;26;20333;-71
2024/04/11 03:03:34;;;;;;;10.35;3.42;;;9.30;39.90;;;;;;5450381;26;20968;-70
2024/04/11 03:06:12;;;;;;;10.38;3.42;;;9.40;40.20;;;;;;5450652;26;20393;-71
2024/04/11 03:08:41;;;;;;;7.90;3.22;;;9.50;39.90;;;;;;5450814;26;20321;-71
2024/04/11 03:11:09;;;;;;;8.27;2.90;;;9.40;39.90;;;;;;5450128;26;20341;-70
2024/04/11 03:13:35;;;;;;;11.85;3.60;;;9.40;39.70;;;;;;5450542;26;20369;-71
2024/04/11 03:16:01;;;;;;;14.20;3.40;;;9.50;39.40;;;;;;5450470;26;20320;-71
2024/04/11 03:18:28;;;;;;;7.07;3.20;;;9.30;39.70;;;;;;5450507;26;20710;-72
2024/04/11 03:20:54;;;;;;;8.55;3.25;;;9.40;39.40;;;;;;5450386;26;20349;-72
2024/04/11 03:23:21;;;;;;;7.60;3.33;;;9.50;39.40;;;;;;5450260;26;20718;-70
2024/04/11 03:25:47;;;;;;;8.32;3.15;;;9.50;39.10;;;;;;5450471;26;20321;-71
2024/04/11 03:28:14;;;;;;;7.20;3.07;;;9.50;39.00;;;;;;5450923;26;20325;-71
2024/04/11 03:30:41;;;;;;;12.45;3.60;;;9.50;39.10;;;;;;5450331;26;20432;-71
2024/04/11 03:33:06;;;;;;;9.02;3.28;;;9.50;38.90;;;;;;5450085;26;20417;-73
2024/04/11 03:35:32;;;;;;;7.93;2.92;;;9.60;39.00;;;;;;5450317;26;20328;-72
2024/04/11 03:37:58;;;;;;;9.52;3.05;;;9.60;38.50;;;;;;5450286;26;20329;-70
2024/04/11 03:40:24;;;;;;;10.77;3.30;;;9.70;38.60;;;;;;5450240;26;20321;-70
2024/04/11 03:42:49;;;;;;;11.27;3.40;;;9.80;38.20;;;;;;5449470;26;20332;-71
2024/04/11 03:45:22;;;;;;;9.80;3.60;;;9.80;37.50;;;;;;5450238;26;20357;-70
2024/04/11 03:47:48;;;;;;;9.17;3.23;;;9.90;38.00;;;;;;5449945;26;20945;-71
2024/04/11 03:50:14;;;;;;;8.75;3.75;;;9.80;37.70;;;;;;5449909;26;20365;-72
2024/04/11 03:52:41;;;;;;;9.70;3.75;;;9.90;37.50;;;;;;5449225;26;20329;-71
2024/04/11 03:55:08;;;;;;;6.47;3.45;;;10.00;37.10;;;;;;5449306;26;20369;-71
2024/04/11 03:57:35;;;;;;;8.27;2.80;;;10.00;36.70;;;;;;5449731;26;20492;-71
2024/04/11 04:00:07;;;;;;;7.72;3.53;;;9.90;36.50;;;;;;5450058;26;20766;-71
2024/04/11 04:02:33;;;;;;;9.52;3.25;;;10.00;36.60;;;;;;5451162;26;20385;-72
2024/04/11 04:04:59;;;;;;;10.05;3.50;;;10.00;36.60;;;;;;5449969;26;20325;-73
2024/04/11 04:07:28;;;;;;;7.80;3.22;;;10.10;36.40;;;;;;5448101;26;20348;-71
2024/04/11 04:09:58;;;;;;;7.93;3.63;;;10.10;36.00;;;;;;5449421;26;20325;-71
2024/04/11 04:12:24;;;;;;;5.38;2.88;;;10.10;35.60;;;;;;5449402;26;20725;-71
2024/04/11 04:14:53;;;;;;;8.97;3.37;;;10.10;36.00;;;;;;5449190;26;20317;-69
2024/04/11 04:17:19;;;;;;;6.40;2.90;;;10.10;35.70;;;;;;5449554;26;20427;-70
2024/04/11 04:19:45;;;;;;;9.20;3.30;;;10.20;36.20;;;;;;5449362;26;20369;-71
2024/04/11 04:22:13;;;;;;;10.95;4.13;;;10.20;35.30;;;;;;5448613;26;20329;-70
2024/04/11 04:24:39;;;;;;;10.25;3.22;;;10.20;35.30;;;;;;5449144;26;20851;-70
2024/04/11 04:27:06;;;;;;;8.77;3.17;;;10.30;35.60;;;;;;5449361;26;20353;-71
2024/04/11 04:29:32;;;;;;;11.13;3.67;;;10.30;35.00;;;;;;5449319;26;20507;-70
2024/04/11 04:31:58;;;;;;;9.57;3.40;;;10.40;34.40;;;;;;5449969;26;20313;-71
2024/04/11 04:34:25;;;;;;;7.93;2.90;;;10.30;34.30;;;;;;5448360;26;20339;-71
2024/04/11 04:36:51;;;;;;;9.83;3.30;;;10.40;34.30;;;;;;5449218;26;20723;-71
2024/04/11 04:39:16;;;;;;;11.40;3.33;;;10.40;34.20;;;;;;5477874;26;20676;-72
2024/04/11 04:41:43;;;;;;;7.17;3.80;;;10.40;34.20;;;;;;5449761;26;20385;-71
2024/04/11 04:44:09;;;;;;;10.20;3.45;;;10.30;34.70;;;;;;5452498;26;20348;-72
2024/04/11 04:46:35;;;;;;;6.85;3.40;;;10.40;33.90;;;;;;5487951;21;20364;-69
2024/04/11 04:49:02;;;;;;;7.35;3.00;;;10.40;33.80;;;;;;5485519;26;20362;-71
2024/04/11 04:51:31;;;;;;;8.23;3.35;;;10.50;33.50;;;;;;5484929;26;20319;-70
2024/04/11 04:53:59;;;;;;;6.75;2.75;;;10.40;33.90;;;;;;5485175;26;20322;-71
2024/04/11 04:56:28;;;;;;;9.43;3.50;;;10.40;33.20;;;;;;5485240;26;20346;-70
2024/04/11 04:58:53;;;;;;;8.27;3.20;;;10.40;33.80;;;;;;5485377;26;20847;-71
2024/04/11 05:01:23;;;;;;;5.97;3.17;;;10.50;33.80;;;;;;5485626;26;20330;-70
2024/04/11 05:03:50;;;;;;;7.70;3.20;;;10.60;33.40;;;;;;5484850;26;20421;-71
2024/04/11 05:06:16;;;;;;;8.77;3.72;;;10.60;32.70;;;;;;5482727;26;20338;-72
2024/04/11 05:08:45;;;;;;;9.45;3.50;;;10.60;33.10;;;;;;5486917;26;20326;-71
2024/04/11 05:11:12;;;;;;;12.73;3.83;;;10.50;33.40;;;;;;5486930;26;20322;-70
2024/04/11 05:13:42;;;;;;;6.68;3.15;;;10.50;33.50;;;;;;5485009;26;20758;-73
2024/04/11 05:16:08;;;;;;;6.43;3.20;;;10.70;32.80;;;;;;5487393;26;20668;-70
2024/04/11 05:18:37;;;;;;;12.77;3.80;;;10.70;33.10;;;;;;5455070;26;20378;-71
2024/04/11 05:21:07;;;;;;;11.27;4.00;;;11.10;36.30;;;;;;5487245;26;20351;-71
2024/04/11 05:23:38;;;;;;;13.32;4.50;;;10.90;32.90;;;;;;5486642;26;20322;-71
2024/04/11 05:26:13;;;;;;;9.10;3.60;;;10.90;33.00;;;;;;5486656;26;20403;-71
2024/04/11 05:28:40;;;;;;;11.10;4.60;;;11.00;32.10;;;;;;5489465;26;20330;-71
2024/04/11 05:31:06;;;;;;;10.48;4.45;;;11.00;32.60;;;;;;5490411;26;20361;-73
2024/04/11 05:33:36;;;;;;;9.67;4.10;;;11.10;32.10;;;;;;5489800;26;20319;-71
2024/04/11 05:36:06;;;;;;;13.13;4.22;;;11.10;32.80;;;;;;5489718;26;20386;-71
2024/04/11 05:38:37;;;;;;;9.50;4.60;;;11.20;31.60;;;;;;5491435;26;20326;-71
2024/04/11 05:41:09;;;;;;;12.47;3.90;;;11.30;32.20;;;;;;5489540;26;20724;-70
2024/04/11 05:43:42;;;;;;;18.05;5.03;;;11.40;31.60;;;;;;5490520;26;20763;-72
2024/04/11 05:46:09;;;;;;;8.95;4.00;;;11.40;31.50;;;;;;5489689;26;20374;-73
2024/04/11 05:48:35;;;;;;;11.32;3.85;;;11.50;31.00;;;;;;5490214;26;20365;-73
2024/04/11 05:51:05;;;;;;;14.68;5.00;;;11.60;31.10;;;;;;5488316;26;20884;-72
2024/04/11 05:53:31;;;;;;;10.85;4.03;;;11.50;31.10;;;;;;5491141;26;20321;-71
2024/04/11 05:55:57;;;;;;;13.80;3.90;;;11.60;31.70;;;;;;5490798;26;20330;-72
2024/04/11 05:58:24;;;;;;;14.83;4.30;;;11.60;31.00;;;;;;5457074;26;20419;-71
2024/04/11 06:00:49;;;;;;;14.60;4.30;;;11.60;30.40;;;;;;5490059;26;20354;-72
2024/04/11 06:03:18;;;;;;;7.73;3.60;;;11.60;30.60;;;;;;5458063;26;20338;-71
2024/04/11 06:05:46;;;;;;;8.32;3.72;;;11.70;30.20;;;;;;5491038;26;20320;-71
2024/04/11 06:08:12;;;;;;;10.73;4.00;;;11.70;30.90;;;;;;5490154;26;20362;-72
2024/04/11 06:10:38;;;;;;;13.20;4.50;;;11.70;31.30;;;;;;5488712;26;20626;-73
2024/04/11 06:13:03;;;;;;;9.73;4.60;;;11.70;31.00;;;;;;5490112;26;20397;-70
2024/04/11 06:15:29;;;;;;;9.95;4.40;;;11.80;30.30;;;;;;5457657;26;20378;-72
2024/04/11 06:17:55;;;;;;;14.10;4.40;;;;;;;;;;5490014;26;20726;-71
2024/04/11 06:20:24;;;;;;;9.73;3.90;;;11.80;30.30;;;;;;5458515;26;20318;-71
2024/04/11 06:22:55;;;;;;;10.75;4.00;;;11.70;30.80;;;;;;5489626;26;20322;-72
2024/04/11 06:25:25;;;;;;;11.20;4.03;;;11.80;31.30;;;;;;5488463;26;20323;-71
2024/04/11 06:27:52;;;;;;;8.77;4.13;;;11.90;30.90;;;;;;5488904;26;20310;-70
2024/04/11 06:30:19;;;;;;;12.20;4.40;;;11.90;30.50;;;;;;5488608;26;20829;-74
2024/04/11 06:32:46;;;;;;;13.30;4.90;;;12.00;30.10;;;;;;5458342;26;20351;-72
2024/04/11 06:35:13;;;;;;;15.50;5.90;;;12.00;31.00;;;;;;5490097;26;20326;-71
2024/04/11 06:37:44;;;;;;;12.73;4.33;;;11.90;30.70;;;;;;5487969;26;20397;-70
2024/04/11 06:40:12;;;;;;;16.17;4.70;;;11.90;30.70;;;;;;5489363;26;20326;-73
2024/04/11 06:42:49;;;;;;;12.60;5.75;;;12.00;30.70;;;;;;5456298;26;20895;-73
2024/04/11 06:45:16;;;;;;;11.00;4.20;;;12.00;30.30;;;;;;5456112;26;20331;-73
2024/04/11 06:47:42;;;;;;;17.52;4.50;;;12.10;31.00;;;;;;5486111;26;20378;-73
2024/04/11 06:50:08;;;;;;;14.20;4.13;;;12.10;30.90;;;;;;5487116;26;20355;-73
2024/04/11 06:52:34;;;;;;;10.63;4.55;;;12.20;30.10;;;;;;5485913;26;20690;-73
2024/04/11 06:54:59;;;;;;;11.63;4.33;;;12.20;30.70;;;;;;5486652;26;20354;-72
2024/04/11 06:57:26;;;;;;;12.87;4.13;;;12.20;30.80;;;;;;5486609;26;20319;-71
2024/04/11 06:59:52;;;;;;;14.57;3.80;;;12.30;30.00;;;;;;5486547;26;20362;-74
2024/04/11 07:02:18;;;;;;;11.95;4.50;;;12.40;29.90;;;;;;5486245;26;20334;-72
2024/04/11 07:04:44;;;;;;;12.90;4.40;;;12.40;29.50;;;;;;5486869;26;20326;-74
2024/04/11 07:07:10;;;;;;;11.40;3.67;;;12.40;29.70;;;;;;5486776;26;20334;-72
2024/04/11 07:09:38;;;;;;;13.97;4.27;;;12.50;29.60;;;;;;5487153;26;20378;-73
2024/04/11 07:12:10;;;;;;;12.27;4.00;;;12.50;29.60;;;;;;5486677;26;20812;-73
2024/04/11 07:14:40;;;;;;;15.35;4.20;;;12.60;28.90;;;;;;5486554;26;20351;-73
2024/04/11 07:17:11;;;;;;;15.00;3.60;;;12.70;28.80;;;;;;5486981;26;20437;-72
2024/04/11 07:19:44;;;;;;;15.23;5.75;;;12.70;28.80;;;;;;5486717;26;20355;-73
2024/04/11 07:22:09;;;;;;;11.15;3.97;;;12.70;28.70;;;;;;5454651;26;20365;-73
2024/04/11 07:24:38;;;;;;;7.00;3.83;;;12.80;28.60;;;;;;5488861;26;20318;-72
2024/04/11 07:27:11;;;;;;;13.82;3.85;;;12.80;28.50;;;;;;5486500;26;20795;-73
2024/04/11 07:29:38;;;;;;;15.68;4.43;;;12.90;28.60;;;;;;5486788;26;20342;-73
2024/04/11 07:32:05;;;;;;;13.37;3.90;;;13.00;28.70;;;;;;5486401;26;20404;-75
2024/04/11 07:34:30;;;;;;;9.27;3.78;;;13.00;28.50;;;;;;5485974;26;20690;-71
2024/04/11 07:36:56;;;;;;;14.00;4.00;;;13.10;28.60;;;;;;5486588;26;20326;-72
2024/04/11 07:39:22;;;;;;;11.60;3.93;;;13.20;28.40;;;;;;5486298;26;20709;-72
2024/04/11 07:42:00;;;;;;;11.32;4.20;;;13.40;27.50;;;;;;5485935;26;20770;-73
2024/04/11 07:44:25;;;;;;;15.75;4.30;;;13.40;27.40;;;;;;5454092;26;20819;-73
2024/04/11 07:46:53;;;;;;;19.57;4.60;;;13.50;26.50;;;;;;5453634;26;20352;-73
2024/04/11 07:49:19;;;;;;;10.93;4.68;;;13.60;27.00;;;;;;5486075;26;20358;-74
2024/04/11 07:51:45;;;;;;;14.17;5.30;;;13.60;27.00;;;;;;5485500;26;20318;-73
2024/04/11 07:54:15;;;;;;;8.53;4.30;;;13.70;27.00;;;;;;5485491;26;20322;-71
2024/04/11 07:56:41;;;;;;;11.65;4.07;;;13.80;27.00;;;;;;5485658;26;20418;-72
2024/04/11 07:59:11;;;;;;;17.73;4.95;;;13.90;26.60;;;;;;5485195;26;20425;-73
2024/04/11 08:01:37;;;;;;;16.05;4.90;;;14.00;26.70;;;;;;5486489;26;20322;-73
2024/04/11 08:04:04;;;;;;;13.47;4.70;;;14.10;25.90;;;;;;5485685;26;20352;-73
2024/04/11 08:06:35;;;;;;;25.17;5.50;;;14.30;25.70;;;;;;5485878;26;20444;-74
2024/04/11 08:09:06;;;;;;;12.13;4.00;;;14.60;24.80;;;;;;5485689;26;20318;-73
2024/04/11 08:11:34;;;;;;;12.45;3.42;;;14.80;24.00;;;;;;5486158;26;20848;-74
2024/04/11 08:14:04;;;;;;;14.73;3.60;;;15.10;23.50;;;;;;5485668;26;20358;-74
2024/04/11 08:16:31;;;;;;;8.68;2.90;;;15.30;22.90;;;;;;5485247;26;20412;-74
2024/04/11 08:19:00;;;;;;;12.90;3.58;;;15.40;22.00;;;;;;5485745;26;20362;-73
2024/04/11 08:21:25;;;;;;;11.55;3.15;;;15.40;21.40;;;;;;5485445;26;20418;-71
2024/04/11 08:23:51;;;;;;;10.37;3.10;;;15.50;21.30;;;;;;5485150;26;20377;-72
2024/04/11 08:26:16;;;;;;;15.03;4.50;;;15.60;20.80;;;;;;5485515;26;20334;-72
2024/04/11 08:28:43;;;;;;;13.18;4.22;;;15.60;20.90;;;;;;5485641;26;20314;-72
2024/04/11 08:31:10;;;;;;;7.15;2.97;;;15.70;21.30;;;;;;5484952;26;20370;-73
2024/04/11 08:33:37;;;;;;;16.17;3.63;;;15.80;21.30;;;;;;5485912;26;20318;-73
2024/04/11 08:36:04;;;;;;;10.00;3.20;;;15.80;21.30;;;;;;5452995;26;20318;-73
2024/04/11 08:38:33;;;;;;;11.57;3.00;;;15.80;20.80;;;;;;5454955;26;20471;-72
2024/04/11 08:41:05;;;;;;;11.27;3.43;;;15.90;21.10;;;;;;5488376;26;20670;-73
2024/04/11 08:43:31;;;;;;;12.30;2.92;;;15.80;20.70;;;;;;5485871;26;20331;-72
2024/04/11 08:45:58;;;;;;;8.10;2.42;;;15.90;20.90;;;;;;5485177;26;20419;-73
2024/04/11 08:48:24;;;;;;;9.90;2.80;;;15.90;20.70;;;;;;5484921;26;20315;-73
2024/04/11 08:50:53;;;;;;;11.65;3.28;;;16.00;20.70;;;;;;5485033;26;20334;-73
2024/04/11 08:53:24;;;;;;;16.30;3.88;;;16.00;20.80;;;;;;5485202;26;20353;-73
2024/04/11 08:55:52;;;;;;;12.35;2.85;;;16.10;20.60;;;;;;5484726;26;20318;-73
2024/04/11 08:58:18;;;;;;;12.50;4.45;;;16.10;20.90;;;;;;5485423;26;20315;-72
2024/04/11 09:00:48;;;;;;;11.88;3.22;;;16.40;20.30;;;;;;5484996;26;20447;-73
2024/04/11 09:03:15;;;;;;;12.88;3.40;;;16.60;19.80;;;;;;5484432;26;20486;-72
2024/04/11 09:05:42;;;;;;;12.63;3.13;;;16.80;19.70;;;;;;5484641;26;20323;-72
2024/04/11 09:08:10;;;;;;;11.80;2.95;;;16.80;19.90;;;;;;5485267;26;20710;-72
2024/04/11 09:10:38;;;;;;;13.68;2.63;;;16.90;19.80;;;;;;5487620;26;20355;-73
2024/04/11 09:13:04;;;;;;;9.38;2.58;;;17.10;19.50;;;;;;5487111;26;20322;-73
2024/04/11 09:15:29;;;;;;;11.95;3.20;;;17.10;19.60;;;;;;5487989;26;20322;-72
2024/04/11 09:17:56;;;;;;;10.13;2.70;;;17.30;19.20;;;;;;5487988;26;20373;-73
2024/04/11 09:20:24;;;;;;;11.50;3.00;;;17.20;18.80;;;;;;5488169;26;20359;-72
2024/04/11 09:22:59;;;;;;;11.20;2.83;;;17.20;19.20;;;;;;5487696;26;20322;-73
2024/04/11 09:25:30;;;;;;;14.82;4.28;;;17.30;19.10;;;;;;5487915;26;20341;-72
2024/04/11 09:27:58;;;;;;;10.23;3.08;;;17.10;19.30;;;;;;5488366;26;20414;-73
2024/04/11 09:30:29;;;;;;;17.15;3.25;;;17.20;19.20;;;;;;5487890;26;20318;-73
2024/04/11 09:33:04;;;;;;;13.45;3.13;;;17.40;19.40;;;;;;5486792;26;20366;-73
2024/04/11 09:35:35;;;;;;;14.55;2.88;;;17.60;18.90;;;;;;5488075;26;20515;-73
2024/04/11 09:38:02;;;;;;;12.70;3.27;;;17.70;18.90;;;;;;5488541;26;20657;-75
2024/04/11 09:40:33;;;;;;;8.43;2.90;;;17.70;18.90;;;;;;5488686;26;20322;-73
2024/04/11 09:43:04;;;;;;;8.02;2.80;;;17.60;18.80;;;;;;5488362;26;20337;-73
2024/04/11 09:45:35;;;;;;;11.18;2.78;;;17.50;19.20;;;;;;5487753;26;20417;-73
2024/04/11 09:48:02;;;;;;;10.63;2.78;;;17.50;19.30;;;;;;5488799;26;20314;-73
2024/04/11 09:50:30;;;;;;;13.52;3.08;;;17.40;19.30;;;;;;5487321;26;20399;-72
2024/04/11 09:52:58;;;;;;;8.57;2.67;;;17.60;19.30;;;;;;5486925;26;20459;-73
2024/04/11 09:55:33;;;;;;;9.48;2.50;;;17.70;19.20;;;;;;5487765;26;20322;-73
2024/04/11 09:58:00;;;;;;;8.13;2.90;;;17.70;19.30;;;;;;5455792;26;20318;-73
2024/04/11 10:03:18;;;;;;;20.20;3.50;;;17.50;19.80;;;;;;5487425;26;20853;-72
2024/04/11 10:05:45;;;;;;;8.50;2.55;;;17.30;20.50;;;;;;5487633;26;20367;-71
2024/04/11 10:08:21;;;;;;;17.67;2.70;;;17.20;20.90;;;;;;5487282;26;20363;-73
2024/04/11 10:10:54;;;;;;;9.95;2.70;;;17.10;21.50;;;;;;5487197;26;20378;-72
2024/04/11 10:13:23;;;;;;;9.65;2.60;;;17.20;21.70;;;;;;5454927;26;20326;-73
2024/04/11 10:16:06;;;;;;;9.52;2.50;;;17.20;21.70;;;;;;5487367;26;20326;-73
2024/04/11 10:18:41;;;;;;;7.28;2.50;;;17.40;21.30;;;;;;5455219;26;20681;-73
2024/04/11 10:21:11;;;;;;;10.07;3.00;;;17.60;21.20;;;;;;5486644;26;20318;-72
2024/04/11 10:23:38;;;;;;;12.20;2.30;;;17.70;21.30;;;;;;5455202;26;20329;-72
2024/04/11 10:26:07;;;;;;;12.00;2.60;;;17.80;21.20;;;;;;5454903;26;20392;-72
2024/04/11 10:28:41;;;;;;;12.15;2.47;;;18.00;20.70;;;;;;5487423;26;20652;-72
2024/04/11 10:31:12;;;;;;;10.45;2.20;;;17.90;21.00;;;;;;5485831;26;20654;-72
2024/04/11 10:33:52;;;;;;;12.85;2.17;;;18.00;20.90;;;;;;5485948;26;20382;-73
2024/04/11 10:36:21;;;;;;;10.43;2.78;;;18.10;21.30;;;;;;5486033;26;20784;-72
2024/04/11 10:38:57;;;;;;;16.30;2.90;;;18.00;21.10;;;;;;5486601;26;20424;-72
2024/04/11 10:41:23;;;;;;;11.13;2.50;;;18.00;21.20;;;;;;5486172;26;20620;-73
2024/04/11 10:43:52;;;;;;;11.10;3.10;;;18.10;21.30;;;;;;5485744;26;20369;-73
2024/04/11 10:46:21;;;;;;;17.23;4.97;;;18.00;21.20;;;;;;5488866;21;20365;-75
2024/04/11 10:48:48;;;;;;;10.63;3.13;;;18.00;21.80;;;;;;5452883;26;20337;-75
2024/04/11 10:51:15;;;;;;;11.55;2.50;;;18.00;22.10;;;;;;5451564;26;20361;-75
2024/04/11 10:53:47;;;;;;;10.18;3.08;;;18.00;21.50;;;;;;5451221;26;20356;-76
2024/04/11 10:56:23;;;;;;;14.27;3.17;;;18.00;22.50;;;;;;5420024;26;20341;-76
2024/04/11 10:58:55;;;;;;;8.10;2.80;;;17.90;23.80;;;;;;5452494;26;20359;-76
2024/04/11 11:01:28;;;;;;;11.48;3.13;;;17.70;24.50;;;;;;5450725;26;20917;-75
2024/04/11 11:03:58;;;;;;;10.00;2.97;;;17.60;25.10;;;;;;5450822;26;20656;-74
2024/04/11 11:06:30;;;;;;;13.70;3.03;;;17.40;26.80;;;;;;5450696;26;20384;-79
2024/04/11 11:09:00;;;;;;;11.02;2.60;;;17.40;28.10;;;;;;5451605;26;20325;-74
2024/04/11 11:11:26;;;;;;;6.43;1.85;;;17.30;28.60;;;;;;5451881;26;20423;-77
2024/04/11 11:13:54;;;;;;;8.60;2.47;;;17.30;29.80;;;;;;5452469;26;20329;-77
2024/04/11 11:16:22;;;;;;;4.82;2.00;;;17.20;30.00;;;;;;5451295;26;20416;-75
2024/04/11 11:18:48;;;;;;;8.98;3.45;;;17.30;29.00;;;;;;5454022;26;20329;-76
2024/04/11 11:21:17;;;;;;;10.20;3.40;;;17.20;29.40;;;;;;5453367;26;20365;-77
2024/04/11 11:23:46;;;;;;;11.52;2.80;;;17.20;29.90;;;;;;5452284;26;20357;-77
2024/04/11 11:26:22;;;;;;;14.70;3.83;;;17.00;30.70;;;;;;5452270;26;20396;-77
2024/04/11 11:28:51;;;;;;;9.75;2.92;;;17.00;31.30;;;;;;5421152;26;20333;-76
2024/04/11 11:31:23;;;;;;;11.23;3.08;;;16.90;31.90;;;;;;5421353;26;20393;-76
2024/04/11 11:33:51;;;;;;;9.57;2.00;;;16.80;32.50;;;;;;5451711;26;20369;-75
2024/04/11 11:36:17;;;;;;;6.55;2.30;;;17.00;32.60;;;;;;5453645;26;20871;-76
2024/04/11 11:38:44;;;;;;;11.18;2.50;;;17.10;32.80;;;;;;5453512;26;20332;-76
2024/04/11 11:41:15;;;;;;;6.47;2.30;;;17.40;32.30;;;;;;5421279;26;20372;-77
2024/04/11 11:43:44;;;;;;;10.82;3.03;;;17.70;32.00;;;;;;5453483;26;20332;-77
2024/04/11 11:46:28;;;;;;;8.05;2.25;;;17.60;31.50;;;;;;5442688;26;20339;-76
2024/04/11 11:48:57;;;;;;;7.28;2.30;;;17.50;32.10;;;;;;5418270;26;20328;-77
2024/04/11 11:51:29;;;;;;;8.20;2.80;;;17.40;32.80;;;;;;5417142;26;20664;-74
2024/04/11 11:54:00;;;;;;;9.27;2.25;;;17.30;32.90;;;;;;5384200;26;20332;-74
2024/04/11 11:56:32;;;;;;;4.20;2.00;;;17.20;33.30;;;;;;5415493;26;20700;-76
2024/04/11 11:59:02;;;;;;;7.80;2.27;;;17.20;33.40;;;;;;5415948;26;20483;-77
2024/04/11 12:01:41;;;;;;;11.67;3.33;;;17.10;33.60;;;;;;5415873;26;20490;-75
2024/04/11 12:04:08;;;;;;;7.22;2.42;;;17.10;33.70;;;;;;5417078;26;20360;-75
2024/04/11 12:06:34;;;;;;;10.02;2.20;;;17.20;33.80;;;;;;5417762;26;20435;-76
2024/04/11 12:09:10;;;;;;;10.30;2.30;;;17.50;33.00;;;;;;5385019;26;20889;-75
2024/04/11 12:11:49;;;;;;;11.30;2.58;;;18.00;31.80;;;;;;5416447;26;20328;-77
2024/04/11 12:14:22;;;;;;;11.93;2.80;;;18.60;30.30;;;;;;5387851;26;20448;-74
2024/04/11 12:16:52;;;;;;;14.57;4.43;;;19.10;28.80;;;;;;5388277;26;20336;-76
2024/04/11 12:19:19;;;;;;;7.07;2.90;;;19.00;28.70;;;;;;5419046;26;20339;-76
2024/04/11 12:21:45;;;;;;;12.55;2.47;;;18.90;28.30;;;;;;5419393;26;20382;-75
2024/04/11 12:24:12;;;;;;;6.07;2.28;;;18.50;28.20;;;;;;5388724;26;20873;-77
2024/04/11 12:26:39;;;;;;;5.53;2.50;;;18.10;30.20;;;;;;5388255;26;20339;-77
2024/04/11 12:29:05;;;;;;;6.05;2.47;;;18.00;31.30;;;;;;5428113;26;20371;-76
2024/04/11 12:31:32;;;;;;;8.60;2.70;;;17.70;31.70;;;;;;5421598;26;20714;-76
2024/04/11 12:33:59;;;;;;;11.05;2.83;;;17.60;32.10;;;;;;5385844;26;20333;-77
2024/04/11 12:39:41;;;;;;;13.18;3.17;;;17.40;32.30;;;;;;5277529;27;20346;-75
2024/04/11 12:42:07;;;;;;;9.05;3.00;;;17.50;33.00;;;;;;5280060;27;20575;-76
2024/04/11 12:44:36;;;;;;;9.20;3.25;;;17.70;32.60;;;;;;5363086;26;20328;-76
2024/04/11 12:47:13;;;;;;;9.80;3.05;;;17.80;31.40;;;;;;5413993;26;20367;-77
2024/04/11 12:49:48;;;;;;;7.85;2.30;;;18.00;31.20;;;;;;5423901;26;20797;-77
2024/04/11 12:52:25;;;;;;;13.80;2.97;;;18.30;30.00;;;;;;5415702;26;20340;-76
2024/04/11 12:54:58;;;;;;;8.70;2.83;;;18.60;29.90;;;;;;5416136;26;20345;-77